Time,TemperatureF,DewpointF,PressureIn,WindDirection,WindDirectionDegrees,WindSpeedMPH,WindSpeedGustMPH,Humidity,HourlyPrecipIn,Conditions,Clouds,dailyrainin,SolarRadiationWatts/m^2,SoftwareType,DateUTC
2013-01-07 00:01:00,41.5,37.1,29.95,NNE,23,6.3,6.3,84,0.00,,---,0.00,0.00,VWS V14.01,2013-01-07 08:01:00,
2013-01-07 00:06:00,41.7,37.5,29.95,NNE,24,4.5,4.5,85,0.00,,---,0.00,3.05,VWS V14.01,2013-01-07 08:06:00,
2013-01-07 00:11:00,41.7,37.5,29.95,NNE,26,4.0,4.0,85,0.00,,---,0.00,0.00,VWS V14.01,2013-01-07 08:11:00,
2013-01-07 00:16:00,42.1,37.8,29.94,NNE,32,2.0,2.0,85,0.00,,---,0.00,0.00,VWS V14.01,2013-01-07 08:16:00,
2013-01-07 00:21:00,42.3,37.9,29.94,NNE,17,4.3,4.3,84,0.00,,---,0.00,0.00,VWS V14.01,2013-01-07 08:21:00,
2013-01-07 00:26:00,42.3,37.8,29.93,North,356,4.5,4.5,84,0.00,,---,0.00,0.00,VWS V14.01,2013-01-07 08:26:00,
2013-01-07 00:31:00,42.4,37.9,29.93,ENE,65,5.4,6.0,84,0.00,,---,0.00,1.83,VWS V14.01,2013-01-07 08:31:00,
2013-01-07 00:36:00,42.3,37.7,29.93,NNE,31,8.1,8.1,84,0.00,,---,0.00,0.00,VWS V14.01,2013-01-07 08:36:00,
2013-01-07 00:41:00,42.3,37.8,29.94,ENE,57,2.5,2.5,84,0.00,,---,0.00,0.00,VWS V14.01,2013-01-07 08:41:00,
2013-01-07 00:46:00,42.1,37.6,29.93,NNE,30,5.8,7.4,84,0.00,,---,0.00,0.00,VWS V14.01,2013-01-07 08:46:00,
2013-01-07 00:51:00,42.1,37.7,29.93,North,8,7.8,7.8,84,0.00,,---,0.00,0.53,VWS V14.01,2013-01-07 08:51:00,
2013-01-07 00:56:00,41.9,37.6,29.93,NNE,14,8.1,8.1,85,0.00,,---,0.00,2.52,VWS V14.01,2013-01-07 08:56:00,
2013-01-07 01:01:00,41.9,37.8,29.92,NE,34,4.5,9.2,85,0.00,,---,0.00,1.07,VWS V14.01,2013-01-07 09:01:00,
2013-01-07 01:06:00,41.9,37.9,29.92,NNE,23,7.8,7.8,86,0.00,,---,0.00,1.30,VWS V14.01,2013-01-07 09:06:00,
2013-01-07 01:11:00,41.9,37.9,29.92,NE,54,7.4,7.4,86,0.00,,---,0.00,0.00,VWS V14.01,2013-01-07 09:11:00,
2013-01-07 01:16:00,41.9,37.9,29.92,ENE,60,4.3,7.2,86,0.00,,---,0.00,0.00,VWS V14.01,2013-01-07 09:16:00,
2013-01-07 01:21:00,42.1,38.1,29.92,NE,43,5.4,5.4,86,0.00,,---,0.00,0.00,VWS V14.01,2013-01-07 09:21:00,
2013-01-07 01:26:00,42.1,38.0,29.92,NE,36,3.6,4.5,86,0.00,,---,0.00,0.00,VWS V14.01,2013-01-07 09:26:00,
2013-01-07 01:31:00,42.3,38.2,29.92,ENE,65,2.5,2.5,86,0.00,,---,0.00,0.00,VWS V14.01,2013-01-07 09:31:00,
2013-01-07 01:36:00,42.3,38.2,29.92,East,101,1.8,1.8,85,0.00,,---,0.00,0.00,VWS V14.01,2013-01-07 09:36:00,
2013-01-07 01:41:00,42.3,38.2,29.92,ENE,72,6.7,6.7,85,0.00,,---,0.00,0.00,VWS V14.01,2013-01-07 09:41:00,
2013-01-07 01:46:00,42.3,38.2,29.92,ENE,64,2.5,5.8,85,0.00,,---,0.00,1.37,VWS V14.01,2013-01-07 09:46:00,
2013-01-07 01:51:00,42.3,38.2,29.92,North,9,6.0,6.7,85,0.00,,---,0.00,0.00,VWS V14.01,2013-01-07 09:51:00,
2013-01-07 01:56:00,42.4,38.3,29.92,NNE,33,3.8,3.8,85,0.00,,---,0.00,0.00,VWS V14.01,2013-01-07 09:56:00,
2013-01-07 02:01:00,42.4,38.3,29.91,North,5,7.8,7.8,85,0.00,,---,0.00,0.00,VWS V14.01,2013-01-07 10:01:00,
2013-01-07 02:06:00,42.4,38.3,29.90,North,9,10.1,10.1,85,0.00,,---,0.00,0.00,VWS V14.01,2013-01-07 10:06:00,
2013-01-07 02:11:00,42.4,38.3,29.90,NNW,342,4.5,4.5,85,0.00,,---,0.00,0.00,VWS V14.01,2013-01-07 10:11:00,
2013-01-07 02:16:00,42.6,38.5,29.90,NE,34,5.4,6.3,85,0.00,,---,0.00,0.00,VWS V14.01,2013-01-07 10:16:00,
2013-01-07 02:21:00,42.6,38.5,29.90,NE,37,7.6,7.6,85,0.00,,---,0.00,1.07,VWS V14.01,2013-01-07 10:21:00,
2013-01-07 02:26:00,42.8,38.5,29.91,North,356,8.3,9.4,85,0.00,,---,0.00,0.00,VWS V14.01,2013-01-07 10:26:00,
2013-01-07 02:31:00,43.0,38.6,29.90,NE,56,4.9,4.9,84,0.00,,---,0.00,0.00,VWS V14.01,2013-01-07 10:31:00,
2013-01-07 02:36:00,43.0,38.6,29.90,NNE,33,3.4,6.3,84,0.00,,---,0.00,0.00,VWS V14.01,2013-01-07 10:36:00,
2013-01-07 02:41:00,42.8,38.5,29.90,NE,34,5.8,5.8,84,0.00,,---,0.00,0.00,VWS V14.01,2013-01-07 10:41:00,
2013-01-07 02:46:00,42.8,38.5,29.89,NE,53,5.6,5.6,84,0.00,,---,0.00,0.00,VWS V14.01,2013-01-07 10:46:00,
2013-01-07 02:51:00,43.0,38.6,29.89,NNE,23,3.6,3.6,84,0.00,,---,0.00,0.00,VWS V14.01,2013-01-07 10:51:00,
2013-01-07 02:56:00,43.0,38.6,29.89,North,352,2.5,5.4,84,0.00,,---,0.00,0.00,VWS V14.01,2013-01-07 10:56:00,
2013-01-07 03:01:00,43.2,38.7,29.89,NNW,345,5.4,5.6,84,0.00,,---,0.00,0.00,VWS V14.01,2013-01-07 11:01:00,
2013-01-07 03:06:00,43.0,38.5,29.88,North,6,1.1,1.1,84,0.00,,---,0.00,1.53,VWS V14.01,2013-01-07 11:06:00,
2013-01-07 03:11:00,43.2,38.6,29.88,NNE,26,3.4,3.4,84,0.00,,---,0.00,0.00,VWS V14.01,2013-01-07 11:11:00,
2013-01-07 03:16:00,43.2,38.5,29.87,ENE,58,5.4,5.4,84,0.00,,---,0.00,0.92,VWS V14.01,2013-01-07 11:16:00,
2013-01-07 03:21:00,43.3,38.5,29.87,NE,44,5.1,6.9,83,0.00,,---,0.00,0.00,VWS V14.01,2013-01-07 11:21:00,
2013-01-07 03:26:00,43.3,38.4,29.88,ENE,60,5.8,7.4,82,0.00,,---,0.00,0.00,VWS V14.01,2013-01-07 11:26:00,
2013-01-07 03:31:00,43.5,38.4,29.88,North,10,6.7,6.7,82,0.00,,---,0.00,2.14,VWS V14.01,2013-01-07 11:31:00,
2013-01-07 03:36:00,43.5,38.4,29.87,North,11,5.4,7.2,82,0.00,,---,0.00,0.92,VWS V14.01,2013-01-07 11:36:00,
2013-01-07 03:41:00,43.5,38.5,29.87,NE,51,4.7,4.7,82,0.00,,---,0.00,0.00,VWS V14.01,2013-01-07 11:41:00,
2013-01-07 03:46:00,43.3,38.5,29.87,North,349,3.1,3.1,83,0.00,,---,0.00,0.00,VWS V14.01,2013-01-07 11:46:00,
2013-01-07 03:51:00,43.2,38.4,29.86,NNE,32,5.6,5.6,83,0.00,,---,0.00,0.92,VWS V14.01,2013-01-07 11:51:00,
2013-01-07 03:56:00,43.3,38.7,29.86,North,11,4.0,7.4,84,0.00,,---,0.00,2.44,VWS V14.01,2013-01-07 11:56:00,
2013-01-07 04:01:00,43.3,38.6,29.86,NNE,15,5.1,5.1,83,0.00,,---,0.00,0.00,VWS V14.01,2013-01-07 12:01:00,
2013-01-07 04:06:00,43.5,38.7,29.86,ENE,57,8.7,8.7,83,0.00,,---,0.00,4.12,VWS V14.01,2013-01-07 12:06:00,
2013-01-07 04:11:00,43.5,38.7,29.86,ENE,70,9.8,9.8,83,0.00,,---,0.00,0.38,VWS V14.01,2013-01-07 12:11:00,
2013-01-07 04:16:00,43.5,38.8,29.85,East,101,9.0,9.0,83,0.00,,---,0.00,0.84,VWS V14.01,2013-01-07 12:16:00,
2013-01-07 04:21:00,43.5,38.9,29.85,NE,50,6.3,6.3,84,0.00,,---,0.00,0.00,VWS V14.01,2013-01-07 12:21:00,
2013-01-07 04:26:00,43.5,38.9,29.85,NE,56,9.8,9.8,84,0.00,,---,0.00,0.31,VWS V14.01,2013-01-07 12:26:00,
2013-01-07 04:31:00,43.7,39.1,29.85,NE,37,4.3,4.3,84,0.00,,---,0.00,0.00,VWS V14.01,2013-01-07 12:31:00,
2013-01-07 04:36:00,43.7,39.1,29.84,NE,51,4.7,4.7,84,0.00,,---,0.00,2.75,VWS V14.01,2013-01-07 12:36:00,
2013-01-07 04:41:00,43.7,39.1,29.83,ENE,68,3.8,5.1,84,0.00,,---,0.00,1.53,VWS V14.01,2013-01-07 12:41:00,
2013-01-07 04:46:00,43.9,39.3,29.83,NNE,33,5.1,5.1,84,0.00,,---,0.00,0.00,VWS V14.01,2013-01-07 12:46:00,
2013-01-07 04:51:00,43.9,39.3,29.82,NE,52,3.8,5.8,84,0.00,,---,0.00,5.19,VWS V14.01,2013-01-07 12:51:00,
2013-01-07 04:56:00,44.1,39.6,29.81,NE,39,11.0,11.0,84,0.00,,---,0.00,0.00,VWS V14.01,2013-01-07 12:56:00,
2013-01-07 05:01:00,44.1,39.6,29.81,NNE,29,3.4,3.4,84,0.00,,---,0.00,0.00,VWS V14.01,2013-01-07 13:01:00,
2013-01-07 05:06:00,44.1,39.7,29.81,NNE,15,5.6,5.8,85,0.00,,---,0.00,0.00,VWS V14.01,2013-01-07 13:06:00,
2013-01-07 05:11:00,44.1,39.8,29.80,ENE,67,6.9,10.3,85,0.00,,---,0.00,0.00,VWS V14.01,2013-01-07 13:11:00,
2013-01-07 05:16:00,44.2,40.2,29.80,NE,54,7.4,7.4,86,0.00,,---,0.00,7.71,VWS V14.01,2013-01-07 13:16:00,
2013-01-07 05:21:00,44.2,40.3,29.80,NE,43,5.8,5.8,86,0.00,,---,0.00,2.14,VWS V14.01,2013-01-07 13:21:00,
2013-01-07 05:26:00,44.2,40.3,29.79,NNE,32,13.2,13.2,86,0.00,,---,0.00,0.00,VWS V14.01,2013-01-07 13:26:00,
2013-01-07 05:31:00,44.4,40.4,29.79,NNE,31,4.7,10.7,86,0.00,,---,0.00,0.00,VWS V14.01,2013-01-07 13:31:00,
2013-01-07 05:36:00,44.4,40.3,29.79,NNE,18,11.0,11.0,85,0.00,,---,0.00,0.00,VWS V14.01,2013-01-07 13:36:00,
2013-01-07 05:41:00,44.4,40.3,29.80,East,89,11.2,11.2,85,0.00,,---,0.00,3.28,VWS V14.01,2013-01-07 13:41:00,
2013-01-07 05:46:00,44.4,40.3,29.80,ENE,66,5.6,5.6,85,0.00,,---,0.00,0.00,VWS V14.01,2013-01-07 13:46:00,
2013-01-07 05:51:00,44.6,40.5,29.80,ENE,67,7.2,7.2,85,0.00,,---,0.00,0.00,VWS V14.01,2013-01-07 13:51:00,
2013-01-07 05:56:00,44.6,40.5,29.80,NE,45,7.6,9.8,86,0.00,,---,0.00,0.00,VWS V14.01,2013-01-07 13:56:00,
2013-01-07 06:01:00,45.0,41.0,29.80,East,85,4.7,9.0,86,0.00,,---,0.00,0.00,VWS V14.01,2013-01-07 14:01:00,
2013-01-07 06:06:00,45.3,41.5,29.80,ENE,59,10.5,10.5,86,0.00,,---,0.00,1.07,VWS V14.01,2013-01-07 14:06:00,
2013-01-07 06:11:00,45.5,41.7,29.80,ENE,59,8.7,17.5,86,0.00,,---,0.00,0.00,VWS V14.01,2013-01-07 14:11:00,
2013-01-07 06:16:00,45.7,42.0,29.80,ENE,69,6.0,14.3,87,0.00,,---,0.00,1.91,VWS V14.01,2013-01-07 14:16:00,
2013-01-07 06:21:00,45.7,42.0,29.79,ENE,72,8.5,8.5,87,0.00,,---,0.00,0.00,VWS V14.01,2013-01-07 14:21:00,
2013-01-07 06:26:00,45.7,42.1,29.80,ESE,103,6.3,15.0,87,0.00,,---,0.00,0.00,VWS V14.01,2013-01-07 14:26:00,
2013-01-07 06:31:00,45.9,42.2,29.79,ENE,65,13.9,17.0,87,0.00,,---,0.01,2.06,VWS V14.01,2013-01-07 14:31:00,
2013-01-07 06:36:00,46.0,42.4,29.79,ENE,64,15.0,15.0,87,0.00,,---,0.01,3.66,VWS V14.01,2013-01-07 14:36:00,
2013-01-07 06:41:00,46.0,42.3,29.79,East,86,18.3,18.3,87,0.00,,---,0.01,1.68,VWS V14.01,2013-01-07 14:41:00,
2013-01-07 06:46:00,46.2,42.3,29.79,East,83,8.3,8.3,86,0.00,,---,0.01,0.61,VWS V14.01,2013-01-07 14:46:00,
2013-01-07 06:51:00,46.2,42.2,29.79,ENE,70,11.9,21.5,86,0.00,,---,0.01,0.00,VWS V14.01,2013-01-07 14:51:00,
2013-01-07 06:56:00,46.4,42.2,29.79,ENE,70,8.1,21.5,85,0.00,,---,0.01,0.00,VWS V14.01,2013-01-07 14:56:00,
2013-01-07 07:01:00,46.6,42.1,29.79,East,80,11.0,11.0,84,0.00,,---,0.01,0.00,VWS V14.01,2013-01-07 15:01:00,
2013-01-07 07:06:00,46.6,42.1,29.78,ENE,70,11.0,21.0,84,0.00,,---,0.01,0.00,VWS V14.01,2013-01-07 15:06:00,
2013-01-07 07:11:00,46.6,42.2,29.79,ENE,57,16.1,16.1,84,0.00,,---,0.01,0.00,VWS V14.01,2013-01-07 15:11:00,
2013-01-07 07:16:00,46.8,42.4,29.78,ENE,66,11.9,11.9,85,0.00,,---,0.01,1.07,VWS V14.01,2013-01-07 15:16:00,
2013-01-07 07:21:00,46.8,42.4,29.78,East,84,16.8,22.6,85,0.00,,---,0.01,1.45,VWS V14.01,2013-01-07 15:21:00,
2013-01-07 07:26:00,46.9,42.5,29.78,ENE,72,18.1,18.1,84,0.00,,---,0.01,1.45,VWS V14.01,2013-01-07 15:26:00,
2013-01-07 07:31:00,46.9,42.4,29.77,ENE,71,18.8,25.7,84,0.00,,---,0.01,0.00,VWS V14.01,2013-01-07 15:31:00,
2013-01-07 07:36:00,46.9,42.4,29.77,ENE,76,20.4,23.9,84,0.00,,---,0.01,0.00,VWS V14.01,2013-01-07 15:36:00,
2013-01-07 07:41:00,47.1,42.5,29.77,NE,47,7.2,22.4,84,0.00,,---,0.01,2.44,VWS V14.01,2013-01-07 15:41:00,
2013-01-07 07:46:00,47.1,42.5,29.77,ENE,74,11.0,17.5,84,0.00,,---,0.01,0.00,VWS V14.01,2013-01-07 15:46:00,
2013-01-07 07:51:00,47.1,42.5,29.77,NNE,22,7.4,7.4,84,0.00,,---,0.01,0.76,VWS V14.01,2013-01-07 15:51:00,
2013-01-07 07:56:00,47.3,42.6,29.76,ENE,74,14.5,18.3,84,0.00,,---,0.01,0.00,VWS V14.01,2013-01-07 15:56:00,
2013-01-07 08:01:00,47.5,42.6,29.77,ENE,65,7.2,19.2,83,0.00,,---,0.01,0.00,VWS V14.01,2013-01-07 16:01:00,
2013-01-07 08:06:00,47.7,42.6,29.77,ENE,73,24.2,24.2,83,0.00,,---,0.01,2.44,VWS V14.01,2013-01-07 16:06:00,
2013-01-07 08:11:00,47.7,42.6,29.77,NE,51,13.0,17.0,82,0.00,,---,0.01,6.41,VWS V14.01,2013-01-07 16:11:00,
2013-01-07 08:16:00,47.8,42.7,29.77,ENE,73,17.2,17.9,82,0.00,,---,0.01,5.19,VWS V14.01,2013-01-07 16:16:00,
2013-01-07 08:21:00,48.0,42.8,29.77,NE,42,7.8,22.2,82,0.00,,---,0.01,0.00,VWS V14.01,2013-01-07 16:21:00,
2013-01-07 08:26:00,48.2,42.9,29.77,ENE,71,15.7,15.7,82,0.00,,---,0.01,4.58,VWS V14.01,2013-01-07 16:26:00,
2013-01-07 08:31:00,48.4,43.0,29.78,ENE,68,17.9,17.9,81,0.00,,---,0.01,7.48,VWS V14.01,2013-01-07 16:31:00,
2013-01-07 08:36:00,48.4,43.0,29.78,ENE,76,15.0,15.0,82,0.00,,---,0.01,2.29,VWS V14.01,2013-01-07 16:36:00,
2013-01-07 08:41:00,48.4,43.1,29.78,ENE,63,16.8,16.8,82,0.00,,---,0.01,2.52,VWS V14.01,2013-01-07 16:41:00,
2013-01-07 08:46:00,48.4,43.2,29.78,ENE,75,14.5,14.5,82,0.00,,---,0.01,3.74,VWS V14.01,2013-01-07 16:46:00,
2013-01-07 08:51:00,48.4,43.4,29.79,ENE,68,11.2,11.6,83,0.00,,---,0.01,7.17,VWS V14.01,2013-01-07 16:51:00,
2013-01-07 08:56:00,48.6,43.6,29.79,ENE,58,21.7,21.7,83,0.00,,---,0.01,8.62,VWS V14.01,2013-01-07 16:56:00,
2013-01-07 09:01:00,48.6,43.6,29.79,ENE,77,14.8,14.8,83,0.00,,---,0.01,14.35,VWS V14.01,2013-01-07 17:01:00,
2013-01-07 09:06:00,48.6,43.6,29.79,ENE,75,20.6,20.6,83,0.00,,---,0.01,16.48,VWS V14.01,2013-01-07 17:06:00,
2013-01-07 09:11:00,48.7,43.8,29.80,ENE,69,10.1,13.9,83,0.00,,---,0.01,16.56,VWS V14.01,2013-01-07 17:11:00,
2013-01-07 09:16:00,48.7,43.8,29.80,ENE,63,9.2,19.0,83,0.00,,---,0.01,16.79,VWS V14.01,2013-01-07 17:16:00,
2013-01-07 09:21:00,48.7,43.9,29.81,ENE,76,7.4,12.8,83,0.00,,---,0.01,11.68,VWS V14.01,2013-01-07 17:21:00,
2013-01-07 09:26:00,48.7,44.0,29.81,East,79,18.6,18.6,84,0.00,,---,0.01,17.32,VWS V14.01,2013-01-07 17:26:00,
2013-01-07 09:31:00,48.7,44.0,29.81,East,82,13.4,20.8,84,0.00,,---,0.01,21.29,VWS V14.01,2013-01-07 17:31:00,
2013-01-07 09:36:00,48.9,44.2,29.82,ENE,66,15.2,15.2,84,0.00,,---,0.01,13.74,VWS V14.01,2013-01-07 17:36:00,
2013-01-07 09:41:00,48.9,44.2,29.82,ENE,71,7.2,7.2,84,0.00,,---,0.01,19.08,VWS V14.01,2013-01-07 17:41:00,
2013-01-07 09:46:00,48.9,44.2,29.82,ENE,73,10.3,15.4,84,0.00,,---,0.01,22.05,VWS V14.01,2013-01-07 17:46:00,
2013-01-07 09:51:00,48.9,44.3,29.82,ENE,69,15.2,15.2,84,0.00,,---,0.01,17.93,VWS V14.01,2013-01-07 17:51:00,
2013-01-07 09:56:00,48.9,44.4,29.82,ENE,68,13.2,17.2,84,0.00,,---,0.01,21.37,VWS V14.01,2013-01-07 17:56:00,
2013-01-07 10:01:00,49.1,44.6,29.83,NE,53,11.6,11.6,84,0.00,,---,0.01,13.13,VWS V14.01,2013-01-07 18:01:00,
2013-01-07 10:05:00,49.1,44.6,29.83,NE,53,6.5,12.8,84,0.00,,---,0.01,21.83,VWS V14.01,2013-01-07 18:05:00,
2013-01-07 10:10:00,49.3,44.7,29.83,ENE,61,13.2,15.7,84,0.00,,---,0.01,19.69,VWS V14.01,2013-01-07 18:10:00,
2013-01-07 10:15:00,49.5,44.7,29.83,ENE,67,15.7,15.7,84,0.00,,---,0.01,21.52,VWS V14.01,2013-01-07 18:15:00,
2013-01-07 10:20:00,49.5,44.6,29.84,ENE,71,19.0,19.0,83,0.00,,---,0.01,21.75,VWS V14.01,2013-01-07 18:20:00,
2013-01-07 10:25:00,49.5,44.7,29.84,East,79,9.6,9.6,83,0.00,,---,0.01,16.94,VWS V14.01,2013-01-07 18:25:00,
2013-01-07 10:30:00,49.5,44.7,29.85,ENE,62,14.3,14.3,84,0.00,,---,0.01,20.76,VWS V14.01,2013-01-07 18:30:00,
2013-01-07 10:35:00,49.6,44.9,29.85,ENE,67,3.8,7.8,84,0.00,,---,0.01,30.60,VWS V14.01,2013-01-07 18:35:00,
2013-01-07 10:40:00,49.6,44.8,29.85,ENE,70,17.7,17.7,83,0.00,,---,0.01,26.79,VWS V14.01,2013-01-07 18:40:00,
2013-01-07 10:45:00,49.6,44.8,29.85,ENE,67,9.0,9.0,83,0.00,,---,0.01,21.75,VWS V14.01,2013-01-07 18:45:00,
2013-01-07 10:50:00,49.6,44.9,29.85,East,82,11.9,11.9,84,0.00,,---,0.01,25.72,VWS V14.01,2013-01-07 18:50:00,
2013-01-07 10:55:00,49.6,44.8,29.85,East,91,15.7,15.7,84,0.00,,---,0.01,22.44,VWS V14.01,2013-01-07 18:55:00,
2013-01-07 11:00:00,49.8,44.9,29.85,NE,56,12.8,13.0,83,0.00,,---,0.01,30.91,VWS V14.01,2013-01-07 19:00:00,
2013-01-07 11:05:00,50.0,45.0,29.85,East,89,11.4,15.4,83,0.00,,---,0.01,31.06,VWS V14.01,2013-01-07 19:05:00,
2013-01-07 11:10:00,50.0,45.1,29.85,East,89,10.5,10.5,83,0.00,,---,0.01,38.77,VWS V14.01,2013-01-07 19:10:00,
2013-01-07 11:15:00,50.0,45.1,29.86,ENE,78,7.4,11.4,83,0.00,,---,0.01,37.55,VWS V14.01,2013-01-07 19:15:00,
2013-01-07 11:20:00,50.0,45.1,29.85,ENE,78,12.8,13.4,83,0.00,,---,0.01,28.46,VWS V14.01,2013-01-07 19:20:00,
2013-01-07 11:25:00,50.2,45.1,29.85,ENE,68,6.7,6.7,83,0.00,,---,0.01,36.94,VWS V14.01,2013-01-07 19:25:00,
2013-01-07 11:30:00,50.2,45.1,29.84,East,97,10.3,10.3,82,0.00,,---,0.01,35.03,VWS V14.01,2013-01-07 19:30:00,
2013-01-07 11:35:00,50.2,45.1,29.84,ENE,72,7.8,13.4,83,0.00,,---,0.01,26.63,VWS V14.01,2013-01-07 19:35:00,
2013-01-07 11:40:00,50.2,45.1,29.85,East,95,11.2,11.2,83,0.00,,---,0.01,35.18,VWS V14.01,2013-01-07 19:40:00,
2013-01-07 11:45:00,50.2,45.1,29.85,East,99,15.0,15.0,82,0.00,,---,0.01,39.76,VWS V14.01,2013-01-07 19:45:00,
2013-01-07 11:50:00,50.2,45.2,29.85,East,83,11.0,11.2,83,0.00,,---,0.01,36.63,VWS V14.01,2013-01-07 19:50:00,
2013-01-07 11:55:00,50.2,45.1,29.85,East,81,17.9,18.1,83,0.00,,---,0.01,34.80,VWS V14.01,2013-01-07 19:55:00,
2013-01-07 12:00:00,50.4,45.2,29.85,ENE,71,13.6,13.6,82,0.00,,---,0.01,29.46,VWS V14.01,2013-01-07 20:00:00,
2013-01-07 12:05:00,50.4,45.2,29.85,East,80,8.3,8.3,82,0.00,,---,0.01,29.38,VWS V14.01,2013-01-07 20:05:00,
2013-01-07 12:10:00,50.4,45.2,29.86,East,81,14.3,14.3,82,0.00,,---,0.01,34.80,VWS V14.01,2013-01-07 20:10:00,
2013-01-07 12:15:00,50.4,45.2,29.86,East,101,27.3,27.3,82,0.00,,---,0.01,36.02,VWS V14.01,2013-01-07 20:15:00,
2013-01-07 12:19:00,50.4,45.1,29.86,ENE,73,11.6,11.6,82,0.00,,---,0.01,27.24,VWS V14.01,2013-01-07 20:19:00,
2013-01-07 12:24:00,50.4,45.1,29.85,East,82,10.3,10.3,82,0.00,,---,0.01,49.98,VWS V14.01,2013-01-07 20:24:00,
2013-01-07 12:29:00,50.4,45.0,29.86,East,97,18.8,18.8,82,0.00,,---,0.01,48.76,VWS V14.01,2013-01-07 20:29:00,
2013-01-07 12:34:00,50.5,44.9,29.86,East,87,16.8,16.8,81,0.00,,---,0.01,50.44,VWS V14.01,2013-01-07 20:34:00,
2013-01-07 12:39:00,50.5,44.7,29.87,East,80,13.0,19.2,80,0.00,,---,0.01,40.52,VWS V14.01,2013-01-07 20:39:00,
2013-01-07 12:44:00,50.7,44.7,29.86,East,87,17.5,17.5,80,0.00,,---,0.01,36.94,VWS V14.01,2013-01-07 20:44:00,
2013-01-07 12:49:00,50.7,44.5,29.87,East,98,16.1,20.6,79,0.00,,---,0.01,52.43,VWS V14.01,2013-01-07 20:49:00,
2013-01-07 12:54:00,50.7,44.5,29.87,East,92,13.6,13.6,79,0.00,,---,0.01,53.50,VWS V14.01,2013-01-07 20:54:00,
2013-01-07 12:59:00,50.7,44.6,29.87,East,94,13.9,13.9,80,0.00,,---,0.01,28.77,VWS V14.01,2013-01-07 20:59:00,
2013-01-07 13:04:00,50.5,44.3,29.88,East,85,15.9,15.9,79,0.00,,---,0.01,39.22,VWS V14.01,2013-01-07 21:04:00,
2013-01-07 13:09:00,50.7,44.3,29.88,East,87,10.5,10.5,79,0.00,,---,0.01,29.30,VWS V14.01,2013-01-07 21:09:00,
2013-01-07 13:14:00,50.7,44.2,29.88,East,83,11.2,11.2,78,0.00,,---,0.01,44.49,VWS V14.01,2013-01-07 21:14:00,
2013-01-07 13:19:00,50.7,44.2,29.88,East,84,20.4,20.4,78,0.00,,---,0.01,36.71,VWS V14.01,2013-01-07 21:19:00,
2013-01-07 13:24:00,50.7,44.2,29.88,East,87,14.1,14.1,78,0.00,,---,0.01,42.58,VWS V14.01,2013-01-07 21:24:00,
2013-01-07 13:29:00,50.7,44.2,29.89,East,94,17.2,17.2,78,0.00,,---,0.01,30.45,VWS V14.01,2013-01-07 21:29:00,
2013-01-07 13:34:00,50.5,44.1,29.91,East,87,7.2,7.2,78,0.00,,---,0.01,37.77,VWS V14.01,2013-01-07 21:34:00,
2013-01-07 13:39:00,50.5,44.2,29.90,East,100,17.9,17.9,79,0.00,,---,0.01,34.57,VWS V14.01,2013-01-07 21:39:00,
2013-01-07 13:44:00,50.5,44.0,29.91,East,91,16.6,16.6,78,0.00,,---,0.01,39.84,VWS V14.01,2013-01-07 21:44:00,
2013-01-07 13:49:00,50.5,44.1,29.91,East,93,11.9,11.9,78,0.00,,---,0.01,35.10,VWS V14.01,2013-01-07 21:49:00,
2013-01-07 13:54:00,50.5,44.0,29.91,ENE,78,11.6,11.6,78,0.00,,---,0.01,25.64,VWS V14.01,2013-01-07 21:54:00,
2013-01-07 13:59:00,50.5,44.0,29.92,East,99,13.4,19.7,78,0.00,,---,0.01,34.80,VWS V14.01,2013-01-07 21:59:00,
2013-01-07 14:04:00,50.4,43.9,29.92,ESE,112,8.7,8.7,78,0.00,,---,0.01,31.21,VWS V14.01,2013-01-07 22:04:00,
2013-01-07 14:09:00,50.4,43.9,29.92,East,94,12.8,12.8,78,0.00,,---,0.01,33.65,VWS V14.01,2013-01-07 22:09:00,
2013-01-07 14:14:00,50.4,43.9,29.93,East,93,12.3,12.3,78,0.00,,---,0.01,17.78,VWS V14.01,2013-01-07 22:14:00,
2013-01-07 14:19:00,50.4,43.9,29.93,East,94,13.6,13.6,78,0.00,,---,0.01,15.11,VWS V14.01,2013-01-07 22:19:00,
2013-01-07 14:24:00,50.2,43.8,29.94,East,97,14.1,14.1,79,0.00,,---,0.01,12.52,VWS V14.01,2013-01-07 22:24:00,
2013-01-07 14:29:00,50.2,43.8,29.94,East,93,15.9,16.6,79,0.00,,---,0.01,9.16,VWS V14.01,2013-01-07 22:29:00,
2013-01-07 14:34:00,50.0,43.8,29.93,East,82,8.7,13.0,79,0.00,,---,0.01,14.73,VWS V14.01,2013-01-07 22:34:00,
2013-01-07 14:39:00,50.0,43.8,29.93,East,95,13.0,13.0,79,0.00,,---,0.01,21.52,VWS V14.01,2013-01-07 22:39:00,
2013-01-07 14:44:00,50.0,43.8,29.93,ESE,106,13.0,13.0,79,0.00,,---,0.01,10.99,VWS V14.01,2013-01-07 22:44:00,
2013-01-07 14:49:00,49.8,43.4,29.93,East,84,14.5,14.5,78,0.00,,---,0.01,19.76,VWS V14.01,2013-01-07 22:49:00,
2013-01-07 14:54:00,50.0,43.3,29.93,East,93,13.6,13.6,78,0.00,,---,0.01,9.31,VWS V14.01,2013-01-07 22:54:00,
2013-01-07 14:59:00,50.0,43.3,29.94,East,97,15.7,15.7,78,0.00,,---,0.01,11.90,VWS V14.01,2013-01-07 22:59:00,
2013-01-07 15:04:00,49.8,42.9,29.94,East,82,19.5,19.5,77,0.00,,---,0.01,8.39,VWS V14.01,2013-01-07 23:04:00,
2013-01-07 15:09:00,49.8,43.1,29.94,SE,126,7.8,17.5,78,0.00,,---,0.01,10.45,VWS V14.01,2013-01-07 23:09:00,
2013-01-07 15:14:00,49.8,43.2,29.95,East,99,13.0,13.0,78,0.00,,---,0.01,10.68,VWS V14.01,2013-01-07 23:14:00,
2013-01-07 15:19:00,49.6,43.0,29.95,East,92,8.1,8.1,78,0.00,,---,0.01,5.72,VWS V14.01,2013-01-07 23:19:00,
2013-01-07 15:24:00,49.6,43.1,29.94,East,94,15.0,15.0,78,0.00,,---,0.01,10.53,VWS V14.01,2013-01-07 23:24:00,
2013-01-07 15:29:00,49.6,43.1,29.96,ENE,75,9.4,9.4,78,0.00,,---,0.01,6.79,VWS V14.01,2013-01-07 23:29:00,
2013-01-07 15:34:00,49.6,43.0,29.97,East,89,17.0,18.1,78,0.00,,---,0.01,3.28,VWS V14.01,2013-01-07 23:34:00,
2013-01-07 15:39:00,49.5,42.9,29.97,East,97,17.0,17.0,78,0.00,,---,0.01,6.26,VWS V14.01,2013-01-07 23:39:00,
2013-01-07 15:44:00,49.5,42.8,29.97,East,81,8.1,8.1,78,0.00,,---,0.01,0.00,VWS V14.01,2013-01-07 23:44:00,
2013-01-07 15:49:00,49.5,43.0,29.98,East,89,10.3,10.3,78,0.00,,---,0.01,7.78,VWS V14.01,2013-01-07 23:49:00,
2013-01-07 15:54:00,49.3,42.9,29.98,East,101,12.3,15.0,78,0.00,,---,0.01,10.45,VWS V14.01,2013-01-07 23:54:00,
2013-01-07 15:59:00,49.3,43.0,29.99,East,87,8.7,13.0,79,0.00,,---,0.01,2.82,VWS V14.01,2013-01-07 23:59:00,
2013-01-07 16:04:00,49.3,43.0,29.99,ENE,77,9.6,9.6,79,0.00,,---,0.01,1.22,VWS V14.01,2013-01-08 00:04:00,
2013-01-07 16:09:00,49.1,42.9,29.99,ESE,103,5.8,8.1,79,0.00,,---,0.01,4.20,VWS V14.01,2013-01-08 00:09:00,
2013-01-07 16:14:00,49.1,43.0,29.99,East,93,7.4,7.4,79,0.00,,---,0.01,0.00,VWS V14.01,2013-01-08 00:14:00,
2013-01-07 16:19:00,49.1,42.9,29.99,ENE,78,9.0,14.5,79,0.00,,---,0.01,1.22,VWS V14.01,2013-01-08 00:19:00,
2013-01-07 16:24:00,49.1,42.8,29.99,East,101,9.0,9.0,79,0.00,,---,0.01,6.03,VWS V14.01,2013-01-08 00:24:00,
2013-01-07 16:29:00,49.1,42.9,29.99,East,81,13.2,13.2,79,0.00,,---,0.01,3.05,VWS V14.01,2013-01-08 00:29:00,
2013-01-07 16:34:00,48.9,42.8,29.99,East,96,6.5,11.4,79,0.00,,---,0.01,6.18,VWS V14.01,2013-01-08 00:34:00,
2013-01-07 16:39:00,48.9,42.9,29.99,East,86,11.4,11.4,80,0.00,,---,0.01,0.00,VWS V14.01,2013-01-08 00:39:00,
2013-01-07 16:44:00,48.9,42.9,30.00,ENE,77,9.6,9.6,80,0.00,,---,0.01,1.53,VWS V14.01,2013-01-08 00:44:00,
2013-01-07 16:49:00,48.9,42.7,30.00,East,82,9.2,9.6,79,0.00,,---,0.01,0.00,VWS V14.01,2013-01-08 00:49:00,
2013-01-07 16:54:00,48.9,42.8,30.00,East,84,13.2,13.2,79,0.00,,---,0.01,0.00,VWS V14.01,2013-01-08 00:54:00,
2013-01-07 16:59:00,48.9,42.9,30.00,East,94,6.5,7.6,80,0.00,,---,0.01,0.92,VWS V14.01,2013-01-08 00:59:00,
2013-01-07 17:04:00,48.9,42.8,30.00,ENE,78,7.6,7.6,79,0.00,,---,0.01,0.00,VWS V14.01,2013-01-08 01:04:00,
2013-01-07 17:09:00,48.9,42.9,30.00,East,99,7.4,7.4,80,0.00,,---,0.01,0.00,VWS V14.01,2013-01-08 01:09:00,
2013-01-07 17:14:00,48.9,42.9,30.01,East,81,6.9,7.6,80,0.00,,---,0.01,0.08,VWS V14.01,2013-01-08 01:14:00,
2013-01-07 17:19:00,48.9,42.9,30.01,ENE,78,7.8,7.8,80,0.00,,---,0.01,0.00,VWS V14.01,2013-01-08 01:19:00,
2013-01-07 17:24:00,48.9,42.7,30.01,NE,41,2.7,5.1,79,0.00,,---,0.01,1.07,VWS V14.01,2013-01-08 01:24:00,
2013-01-07 17:29:00,48.9,42.8,30.01,East,92,9.0,9.0,79,0.00,,---,0.01,0.92,VWS V14.01,2013-01-08 01:29:00,
2013-01-07 17:34:00,48.7,42.7,30.02,ESE,107,4.0,8.3,80,0.00,,---,0.01,0.00,VWS V14.01,2013-01-08 01:34:00,
2013-01-07 17:39:00,48.7,42.6,30.02,ENE,78,11.0,11.0,79,0.00,,---,0.01,0.08,VWS V14.01,2013-01-08 01:39:00,
2013-01-07 17:44:00,48.7,42.6,30.01,ENE,64,6.7,8.1,79,0.00,,---,0.01,0.61,VWS V14.01,2013-01-08 01:44:00,
2013-01-07 17:49:00,48.7,42.5,30.02,East,83,5.4,5.4,79,0.00,,---,0.01,0.00,VWS V14.01,2013-01-08 01:49:00,
2013-01-07 17:54:00,48.7,42.6,30.01,East,91,6.9,6.9,79,0.00,,---,0.01,0.15,VWS V14.01,2013-01-08 01:54:00,
2013-01-07 17:59:00,48.7,42.4,30.02,East,85,5.4,5.4,79,0.00,,---,0.01,0.00,VWS V14.01,2013-01-08 01:59:00,
2013-01-07 18:04:00,48.7,42.5,30.03,ENE,71,6.5,6.5,79,0.00,,---,0.01,0.00,VWS V14.01,2013-01-08 02:04:00,
2013-01-07 18:09:00,48.7,42.4,30.03,ENE,78,4.0,4.7,79,0.00,,---,0.01,1.53,VWS V14.01,2013-01-08 02:09:00,
2013-01-07 18:14:00,48.6,42.2,30.03,ENE,72,4.5,4.5,79,0.00,,---,0.01,0.99,VWS V14.01,2013-01-08 02:14:00,
2013-01-07 18:19:00,48.6,42.1,30.03,ENE,61,7.6,8.7,78,0.00,,---,0.01,2.21,VWS V14.01,2013-01-08 02:19:00,
2013-01-07 18:24:00,48.4,41.8,30.03,ENE,77,5.8,10.3,78,0.00,,---,0.01,0.00,VWS V14.01,2013-01-08 02:24:00,
2013-01-07 18:29:00,48.4,41.7,30.03,NE,55,9.6,9.6,78,0.00,,---,0.01,0.00,VWS V14.01,2013-01-08 02:29:00,
2013-01-07 18:34:00,48.4,41.6,30.03,ENE,74,12.1,12.1,77,0.00,,---,0.01,0.00,VWS V14.01,2013-01-08 02:34:00,
2013-01-07 18:39:00,48.4,41.6,30.03,NE,52,6.0,6.0,77,0.00,,---,0.01,1.83,VWS V14.01,2013-01-08 02:39:00,
2013-01-07 18:44:00,48.4,41.3,30.03,East,89,9.2,9.2,76,0.00,,---,0.01,0.00,VWS V14.01,2013-01-08 02:44:00,
2013-01-07 18:49:00,48.4,41.2,30.04,East,82,10.1,10.1,76,0.00,,---,0.01,0.00,VWS V14.01,2013-01-08 02:49:00,
2013-01-07 18:54:00,48.2,41.2,30.04,ENE,66,5.8,5.8,77,0.00,,---,0.01,0.00,VWS V14.01,2013-01-08 02:54:00,
2013-01-07 18:59:00,48.2,41.1,30.04,East,79,4.0,4.5,76,0.00,,---,0.01,0.00,VWS V14.01,2013-01-08 02:59:00,
2013-01-07 19:04:00,48.2,40.9,30.05,East,83,4.5,4.5,76,0.00,,---,0.01,0.00,VWS V14.01,2013-01-08 03:04:00,
2013-01-07 19:09:00,48.2,40.9,30.05,East,80,5.4,5.4,76,0.00,,---,0.01,0.00,VWS V14.01,2013-01-08 03:09:00,
2013-01-07 19:14:00,48.0,40.7,30.05,ENE,69,4.5,5.4,76,0.00,,---,0.01,0.00,VWS V14.01,2013-01-08 03:14:00,
2013-01-07 19:19:00,48.0,40.7,30.05,ENE,58,5.6,5.6,76,0.00,,---,0.01,0.00,VWS V14.01,2013-01-08 03:19:00,
2013-01-07 19:24:00,48.0,40.7,30.05,ENE,68,5.8,5.8,76,0.00,,---,0.01,1.37,VWS V14.01,2013-01-08 03:24:00,
2013-01-07 19:29:00,48.0,40.7,30.05,ENE,73,9.2,9.2,76,0.00,,---,0.01,0.00,VWS V14.01,2013-01-08 03:29:00,
2013-01-07 19:34:00,47.8,40.4,30.05,ENE,75,9.4,10.3,75,0.00,,---,0.01,4.12,VWS V14.01,2013-01-08 03:34:00,
2013-01-07 19:39:00,47.8,40.3,30.04,ENE,67,9.8,9.8,75,0.00,,---,0.01,0.00,VWS V14.01,2013-01-08 03:39:00,
2013-01-07 19:44:00,47.8,40.4,30.04,ENE,73,6.3,8.7,75,0.00,,---,0.01,1.60,VWS V14.01,2013-01-08 03:44:00,
2013-01-07 19:49:00,47.8,40.3,30.04,East,88,4.9,11.6,75,0.00,,---,0.01,0.00,VWS V14.01,2013-01-08 03:49:00,
2013-01-07 19:54:00,47.7,40.2,30.04,ENE,67,5.6,10.5,75,0.00,,---,0.01,0.92,VWS V14.01,2013-01-08 03:54:00,
2013-01-07 19:59:00,47.7,40.2,30.05,East,79,13.2,13.2,75,0.00,,---,0.01,1.14,VWS V14.01,2013-01-08 03:59:00,
2013-01-07 20:04:00,47.7,40.3,30.05,East,80,7.8,8.1,76,0.00,,---,0.01,0.00,VWS V14.01,2013-01-08 04:04:00,
2013-01-07 20:09:00,47.5,40.1,30.05,East,86,4.5,9.0,75,0.00,,---,0.01,0.00,VWS V14.01,2013-01-08 04:09:00,
2013-01-07 20:14:00,47.5,40.0,30.06,NE,44,6.9,8.3,75,0.00,,---,0.01,0.46,VWS V14.01,2013-01-08 04:14:00,
2013-01-07 20:19:00,47.5,40.0,30.06,ENE,73,4.9,6.7,75,0.00,,---,0.01,0.00,VWS V14.01,2013-01-08 04:19:00,
2013-01-07 20:24:00,47.5,39.9,30.07,East,86,5.4,7.2,75,0.00,,---,0.01,4.88,VWS V14.01,2013-01-08 04:24:00,
2013-01-07 20:29:00,47.5,39.9,30.06,East,85,7.8,7.8,75,0.00,,---,0.01,0.00,VWS V14.01,2013-01-08 04:29:00,
2013-01-07 20:34:00,47.3,39.6,30.06,ENE,62,7.6,7.6,74,0.00,,---,0.01,0.53,VWS V14.01,2013-01-08 04:34:00,
2013-01-07 20:38:00,47.3,39.8,30.06,East,85,4.0,6.3,75,0.00,,---,0.01,0.00,VWS V14.01,2013-01-08 04:38:00,
2013-01-07 20:43:00,47.3,39.6,30.06,ENE,59,5.6,10.1,74,0.00,,---,0.01,0.92,VWS V14.01,2013-01-08 04:43:00,
2013-01-07 20:48:00,47.1,39.4,30.07,ENE,60,4.7,9.4,74,0.00,,---,0.01,0.00,VWS V14.01,2013-01-08 04:48:00,
2013-01-07 20:53:00,47.1,39.3,30.08,East,92,6.5,8.1,74,0.00,,---,0.01,2.52,VWS V14.01,2013-01-08 04:53:00,
2013-01-07 20:58:00,47.1,39.5,30.08,ENE,69,7.4,7.4,75,0.00,,---,0.01,2.52,VWS V14.01,2013-01-08 04:58:00,
2013-01-07 21:00:00,47.1,39.4,30.08,ENE,71,9.2,11.2,74,0.00,,---,0.01,0.00,VWS V14.01,2013-01-08 05:00:00,
2013-01-07 21:01:00,47.1,39.4,30.08,ENE,57,6.0,6.0,74,0.00,,---,0.01,0.00,VWS V14.01,2013-01-08 05:01:00,
2013-01-07 21:02:00,47.1,39.4,30.08,ENE,70,6.0,6.0,74,0.00,,---,0.01,2.37,VWS V14.01,2013-01-08 05:02:00,
2013-01-07 21:07:00,47.1,39.5,30.08,East,79,6.3,6.9,75,0.00,,---,0.01,0.00,VWS V14.01,2013-01-08 05:07:00,
2013-01-07 21:12:00,47.1,39.5,30.08,ENE,75,5.4,7.8,75,0.00,,---,0.01,0.00,VWS V14.01,2013-01-08 05:12:00,
2013-01-07 21:17:00,47.1,39.4,30.08,NNE,20,6.3,9.2,74,0.00,,---,0.01,0.31,VWS V14.01,2013-01-08 05:17:00,
2013-01-07 21:22:00,47.1,39.3,30.08,NE,54,14.3,14.3,74,0.00,,---,0.01,1.53,VWS V14.01,2013-01-08 05:22:00,
2013-01-07 21:27:00,47.1,39.2,30.09,NE,52,4.7,4.7,74,0.00,,---,0.01,3.66,VWS V14.01,2013-01-08 05:27:00,
2013-01-07 21:32:00,47.1,39.2,30.09,ENE,68,4.7,8.1,74,0.00,,---,0.01,0.00,VWS V14.01,2013-01-08 05:32:00,
2013-01-07 21:37:00,47.1,39.2,30.09,NE,39,2.0,4.9,74,0.00,,---,0.01,0.00,VWS V14.01,2013-01-08 05:37:00,
2013-01-07 21:42:00,47.1,39.1,30.10,NE,39,5.4,7.8,74,0.00,,---,0.01,0.00,VWS V14.01,2013-01-08 05:42:00,
2013-01-07 21:47:00,47.1,39.2,30.10,East,85,7.2,7.2,74,0.00,,---,0.01,0.69,VWS V14.01,2013-01-08 05:47:00,
2013-01-07 21:52:00,47.1,39.3,30.10,ENE,65,5.6,6.9,74,0.00,,---,0.01,0.00,VWS V14.01,2013-01-08 05:52:00,
2013-01-07 21:57:00,47.1,39.3,30.10,ENE,70,5.6,5.6,74,0.00,,---,0.01,0.61,VWS V14.01,2013-01-08 05:57:00,
2013-01-07 22:02:00,47.1,39.3,30.10,ENE,65,4.3,4.3,74,0.00,,---,0.01,0.00,VWS V14.01,2013-01-08 06:02:00,
2013-01-07 22:07:00,47.1,39.2,30.10,ENE,76,11.6,11.6,74,0.00,,---,0.01,0.00,VWS V14.01,2013-01-08 06:07:00,
2013-01-07 22:12:00,46.9,39.0,30.10,ENE,63,9.2,9.2,74,0.00,,---,0.01,0.00,VWS V14.01,2013-01-08 06:12:00,
2013-01-07 22:17:00,46.9,39.0,30.10,ENE,57,10.3,10.3,74,0.00,,---,0.01,0.00,VWS V14.01,2013-01-08 06:17:00,
2013-01-07 22:22:00,47.1,39.0,30.10,ENE,72,6.0,6.9,73,0.00,,---,0.01,0.99,VWS V14.01,2013-01-08 06:22:00,
2013-01-07 22:27:00,46.9,38.8,30.10,NNE,32,10.3,10.3,73,0.00,,---,0.01,1.83,VWS V14.01,2013-01-08 06:27:00,
2013-01-07 22:32:00,46.9,38.8,30.10,NNW,331,2.9,3.6,73,0.00,,---,0.01,0.31,VWS V14.01,2013-01-08 06:32:00,
2013-01-07 22:37:00,46.9,38.8,30.10,ENE,77,10.3,10.3,73,0.00,,---,0.01,2.82,VWS V14.01,2013-01-08 06:37:00,
2013-01-07 22:42:00,46.9,38.8,30.10,NNE,20,7.2,7.2,73,0.00,,---,0.01,0.92,VWS V14.01,2013-01-08 06:42:00,
2013-01-07 22:47:00,46.9,38.8,30.10,ENE,71,6.0,6.3,73,0.00,,---,0.01,0.00,VWS V14.01,2013-01-08 06:47:00,
2013-01-07 22:52:00,46.9,39.1,30.11,ENE,77,5.1,5.8,74,0.00,,---,0.01,0.00,VWS V14.01,2013-01-08 06:52:00,
2013-01-07 22:57:00,46.9,38.9,30.11,East,82,10.7,11.4,73,0.00,,---,0.01,0.84,VWS V14.01,2013-01-08 06:57:00,
2013-01-07 23:02:00,46.9,39.1,30.11,East,82,9.0,9.0,74,0.00,,---,0.01,0.00,VWS V14.01,2013-01-08 07:02:00,
2013-01-07 23:07:00,46.9,39.2,30.12,ENE,78,8.1,8.5,74,0.00,,---,0.01,2.21,VWS V14.01,2013-01-08 07:07:00,
2013-01-07 23:12:00,46.9,39.0,30.12,NE,48,4.0,4.7,74,0.00,,---,0.01,0.00,VWS V14.01,2013-01-08 07:12:00,
2013-01-07 23:17:00,46.8,38.8,30.12,NE,42,6.0,6.0,74,0.00,,---,0.01,0.00,VWS V14.01,2013-01-08 07:17:00,
2013-01-07 23:21:00,46.8,38.6,30.12,ENE,71,9.4,9.4,73,0.00,,---,0.01,0.31,VWS V14.01,2013-01-08 07:21:00,
2013-01-07 23:26:00,46.6,38.4,30.12,ENE,62,11.2,11.2,73,0.00,,---,0.01,1.45,VWS V14.01,2013-01-08 07:26:00,
2013-01-07 23:31:00,46.6,38.7,30.12,East,86,5.4,5.6,74,0.00,,---,0.01,0.00,VWS V14.01,2013-01-08 07:31:00,
2013-01-07 23:36:00,46.6,38.8,30.12,East,88,6.5,8.1,74,0.00,,---,0.01,0.00,VWS V14.01,2013-01-08 07:36:00,
2013-01-07 23:41:00,46.6,38.8,30.12,East,96,4.7,4.7,74,0.00,,---,0.01,5.27,VWS V14.01,2013-01-08 07:41:00,
2013-01-07 23:46:00,46.6,39.0,30.12,ENE,75,8.7,8.7,75,0.00,,---,0.01,0.00,VWS V14.01,2013-01-08 07:46:00,
2013-01-07 23:51:00,46.6,39.0,30.12,East,89,8.3,8.3,75,0.00,,---,0.01,0.00,VWS V14.01,2013-01-08 07:51:00,
2013-01-07 23:56:00,46.6,39.1,30.12,East,96,8.1,8.1,75,0.00,,---,0.01,0.99,VWS V14.01,2013-01-08 07:56:00,